Data for 04/22/2016

Time Sea-Level Adjusted Pressure Absolute Pressure Temperature Relative Humidity Dew Point   
(mb) (inHg) (mb) (inHg) (C) (F) (%) (C) (F)
00:05 1014 29.94 843 24.89 14 57.2 36 -0.6 30.9
00:10 1014 29.94 843 24.89 13.8 56.9 37 -0.5 31.1
00:15 1014 29.94 843 24.89 13.6 56.6 37 -0.5 31
00:20 1014 29.94 843 24.89 13.7 56.7 36 -1 30.2
00:25 1014 29.94 843 24.89 13.7 56.7 37 -0.7 30.8
00:30 1014 29.94 843 24.89 13.5 56.3 38 -0.6 30.9
00:35 1014 29.94 843 24.89 13.3 56 37 -0.8 30.5
00:40 1014 29.94 843 24.89 13.2 55.8 38 -0.7 30.7
00:45 1014 29.94 843 24.89 13.1 55.6 38 -0.9 30.3
00:50 1014 29.94 843 24.89 13.1 55.6 37 -1.2 29.9
00:55 1014 29.94 843 24.89 13.1 55.6 37 -1.2 29.9
01:00 1014 29.94 843 24.89 13.1 55.5 37 -1.3 29.7
01:05 1014 29.94 843 24.89 13.1 55.5 36 -1.6 29.1
01:10 1014 29.94 843 24.89 13.2 55.7 36 -1.4 29.5
01:15 1014 29.94 843 24.89 13.1 55.7 36 -1.5 29.3
01:20 1014 29.94 843 24.89 13 55.4 37 -1.3 29.7
01:25 1014 29.94 843 24.89 13 55.3 36 -1.6 29.2
01:30 1014 29.94 843 24.89 13.1 55.6 35 -1.9 28.6
01:35 1014 29.94 843 24.89 13.2 55.7 35 -2 28.4
01:40 1014 29.94 843 24.89 13.2 55.8 34 -2.2 28.1
01:45 1014 29.94 843 24.89 13.2 55.8 34 -2.1 28.2
01:50 1014 29.94 843 24.89 13.2 55.8 34 -2.3 27.8
01:55 1014 29.94 843 24.89 13.2 55.8 33 -2.5 27.4
02:00 1014 29.94 843 24.89 13.3 55.9 33 -2.7 27.2
02:05 1014 29.94 843 24.89 13.3 56 33 -2.6 27.3
02:10 1014 29.94 843 24.89 13.2 55.7 33 -2.7 27.2
02:15 1014 29.94 843 24.89 13 55.5 33 -2.7 27.1
02:20 1014 29.94 843 24.89 12.9 55.3 33 -2.8 26.9
02:25 1013 29.91 843 24.89 12.9 55.2 33 -3 26.5
02:30 1013 29.91 843 24.89 12.9 55.1 33 -2.9 26.7
02:35 1013 29.91 843 24.89 12.7 54.9 34 -2.8 27
02:40 1013 29.91 843 24.89 12.6 54.6 34 -2.9 26.7
02:45 1013 29.91 843 24.89 12.6 54.6 34 -2.8 26.9
02:50 1013 29.91 843 24.89 12.3 54.2 34 -3.1 26.4
02:55 1013 29.91 843 24.89 12.2 54 34 -3.2 26.2
03:00 1013 29.91 843 24.89 12.2 54 34 -3 26.6
03:05 1013 29.91 843 24.89 12.1 53.7 35 -2.9 26.8
03:10 1013 29.91 842 24.86 11.9 53.3 36 -2.9 26.9
03:15 1013 29.91 842 24.86 11.8 53.2 35 -3.2 26.3
03:20 1013 29.91 842 24.86 11.8 53.2 36 -2.9 26.9
03:25 1013 29.91 842 24.86 11.9 53.3 35 -3.1 26.5
03:30 1013 29.91 842 24.86 12.1 53.7 35 -2.9 26.7
03:35 1013 29.91 842 24.86 12 53.7 34 -3.4 25.9
03:40 1013 29.91 842 24.86 12.3 54.2 34 -3.1 26.4
03:45 1013 29.91 842 24.86 12.2 54 35 -2.8 26.9
03:50 1013 29.91 842 24.86 11.8 53.3 35 -3.2 26.3
03:55 1013 29.91 842 24.86 11.9 53.4 36 -2.8 27
04:00 1013 29.91 842 24.86 11.6 52.9 36 -2.7 27.1
04:05 1013 29.91 842 24.86 11.6 52.8 36 -2.8 26.9
04:10 1013 29.91 842 24.86 11.6 52.9 36 -3 26.5
04:15 1013 29.91 842 24.86 11.7 53.1 36 -2.7 27.1
04:20 1013 29.91 842 24.86 11.5 52.6 37 -2.8 27
04:25 1013 29.91 842 24.86 11.5 52.6 36 -2.9 26.7
04:30 1013 29.91 842 24.86 11.6 52.9 36 -3.1 26.5
04:35 1013 29.91 842 24.86 11.8 53.2 35 -3.2 26.2
04:40 1013 29.91 842 24.86 11.9 53.4 35 -3 26.6
04:45 1013 29.91 842 24.86 11.8 53.3 36 -2.8 26.9
04:50 1013 29.91 842 24.86 11.6 53 36 -3 26.7
04:55 1013 29.91 842 24.86 11.8 53.3 34 -3.5 25.7
05:00 1013 29.91 842 24.86 12 53.5 34 -3.3 26.1
05:05 1013 29.91 842 24.86 12 53.6 34 -3.3 26.1
05:10 1013 29.91 842 24.86 11.9 53.4 34 -3.3 26.1
05:15 1013 29.91 842 24.86 11.7 53.1 36 -2.9 26.8
05:20 1013 29.91 842 24.86 11.6 52.8 36 -2.8 27
05:25 1013 29.91 842 24.86 11.6 52.8 36 -3.1 26.4
05:30 1013 29.91 842 24.86 11.8 53.3 34 -3.5 25.8
05:35 1013 29.91 842 24.86 12.1 53.8 33 -3.4 25.8
05:40 1013 29.91 842 24.86 12.5 54.5 32 -3.7 25.3
05:45 1013 29.91 842 24.86 12.9 55.2 32 -3.2 26.2
05:50 1013 29.91 842 24.86 12.6 54.6 34 -2.7 27.2
05:55 1013 29.91 842 24.86 12.2 54 33 -3.4 26
06:00 1013 29.91 842 24.86 12.6 54.8 32 -3.4 25.8
06:05 1013 29.91 842 24.86 13 55.5 31 -3.7 25.3
06:10 1013 29.91 842 24.86 13.5 56.3 30 -3.6 25.5
06:15 1013 29.91 842 24.86 13.6 56.5 30 -3.7 25.3
06:20 1013 29.91 842 24.86 13.8 56.9 29 -4 24.8
06:25 1013 29.91 842 24.86 14 57.3 29 -3.7 25.4
06:30 1013 29.91 842 24.86 14.1 57.3 29 -3.6 25.4
06:35 1013 29.91 842 24.86 14.2 57.5 29 -3.5 25.7
06:40 1013 29.91 842 24.86 14 57.2 30 -3.2 26.2
06:45 1013 29.91 842 24.86 14.1 57.3 30 -3.1 26.4
06:50 1013 29.91 842 24.86 14.1 57.4 30 -3.3 26.1
06:55 1013 29.91 842 24.86 14.4 57.8 30 -3 26.6
07:00 1013 29.91 842 24.86 14.4 58 30 -3 26.6
07:05 1013 29.91 842 24.86 14.5 58.1 30 -2.7 27.1
07:10 1013 29.91 842 24.86 14.7 58.4 29 -3 26.7
07:15 1013 29.91 842 24.86 14.8 58.7 30 -2.6 27.3
07:20 1013 29.91 842 24.86 14.9 58.8 30 -2.4 27.6
07:25 1012 29.88 842 24.86 14.8 58.7 30 -2.3 27.9
07:30 1012 29.88 842 24.86 15.1 59.1 30 -2.4 27.6
07:35 1012 29.88 842 24.86 15.3 59.6 30 -2.1 28.3
07:40 1012 29.88 842 24.86 15.3 59.6 30 -1.9 28.6
07:45 1012 29.88 842 24.86 15.2 59.4 30 -2.2 28
07:50 1012 29.88 842 24.86 15.6 60 29 -2.5 27.4
07:55 1012 29.88 842 24.86 15.9 60.5 29 -2.3 27.9
08:00 1012 29.88 842 24.86 15.9 60.7 28 -2.4 27.7
08:05 1012 29.88 842 24.86 16.1 61.1 28 -2.2 28.1
08:10 1012 29.88 842 24.86 16.4 61.4 28 -2.1 28.2
08:15 1012 29.88 842 24.86 16.5 61.7 28 -2 28.4
08:20 1012 29.88 842 24.86 16.8 62.2 26 -2.5 27.5
08:25 1012 29.88 842 24.86 16.9 62.5 26 -2.5 27.4
08:30 1012 29.88 842 24.86 17.1 62.8 26 -2.6 27.3
08:35 1012 29.88 842 24.86 17.2 62.9 26 -2.4 27.7
08:40 1012 29.88 842 24.86 17.2 63 26 -2.4 27.6
08:45 1012 29.88 842 24.86 17.3 63.2 26 -2.3 27.8
08:50 1012 29.88 842 24.86 17.6 63.7 26 -2.1 28.3
08:55 1012 29.88 842 24.86 17.9 64.2 25 -2.1 28.3
09:00 1013 29.91 842 24.86 18 64.4 25 -2 28.3
09:05 1012 29.88 842 24.86 18.2 64.8 25 -2 28.3
09:10 1012 29.88 842 24.86 18.3 65 25 -1.9 28.5
09:15 1012 29.88 842 24.86 18.5 65.4 24 -2 28.4
09:20 1012 29.88 842 24.86 18.7 65.7 24 -2.3 27.8
09:25 1012 29.88 842 24.86 18.9 66 24 -1.9 28.5
09:30 1012 29.88 842 24.86 18.9 65.9 24 -2 28.4
09:35 1012 29.88 842 24.86 19 66.2 24 -1.8 28.8
09:40 1012 29.88 842 24.86 19.3 66.7 23 -2.3 27.8
09:45 1013 29.91 842 24.86 19.5 67.1 22 -2.6 27.4
09:50 1013 29.91 842 24.86 19.7 67.4 23 -1.8 28.7
09:55 1012 29.88 842 24.86 19.6 67.3 24 -1.5 29.3
10:00 1012 29.88 842 24.86 19.6 67.3 21 -3 26.7
10:05 1012 29.88 842 24.86 19.9 67.9 17 -5.4 22.3
10:10 1012 29.88 842 24.86 20 68 17 -5.5 22.1
10:15 1012 29.88 841 24.83 19.8 67.7 17 -5.8 21.6
10:20 1012 29.88 841 24.83 19.8 67.7 16 -6.8 19.7
10:25 1012 29.88 841 24.83 20.2 68.4 16 -6.3 20.6
10:30 1012 29.88 841 24.83 20.2 68.3 15 -7.5 18.5
10:35 1012 29.88 841 24.83 20.2 68.4 18 -4.9 23.1
10:40 1012 29.88 841 24.83 20.6 69.1 15 -6.6 20.1
10:45 1012 29.88 841 24.83 20.5 68.8 16 -5.9 21.3
10:50 1012 29.88 841 24.83 20.3 68.6 16 -6.6 20.1
10:55 1012 29.88 841 24.83 20.5 69 15 -6.5 20.3
11:00 1012 29.88 841 24.83 20.7 69.2 16 -5.5 22.1
11:05 1012 29.88 841 24.83 20.9 69.6 18 -4 24.8
11:10 1012 29.88 841 24.83 21.2 70.1 15 -6.7 19.9
11:15 1012 29.88 841 24.83 21.1 69.9 15 -6 21.2
11:20 1012 29.88 841 24.83 20.9 69.7 14 -7.1 19.2
11:25 1012 29.88 841 24.83 21 69.8 15 -6.6 20.2
11:30 1012 29.88 841 24.83 20.9 69.7 14 -7.1 19.3
11:35 1012 29.88 841 24.83 21.2 70.2 14 -7 19.4
11:40 1012 29.88 841 24.83 21.6 70.9 14 -7 19.5
11:45 1012 29.88 841 24.83 22.1 71.8 13 -7.1 19.2
11:50 1012 29.88 841 24.83 22.1 71.7 14 -6.4 20.5
11:55 1012 29.88 841 24.83 22 71.5 14 -6.4 20.4
12:00 1012 29.88 841 24.83 22.1 71.7 14 -6.5 20.4
12:05 1012 29.88 841 24.83 22.6 72.7 13 -6.9 19.6
12:10 1011 29.85 841 24.83 23.3 73.9 13 -6.3 20.7
12:15 1011 29.85 840 24.81 23.9 75 13 -6.3 20.6
12:20 1011 29.85 840 24.81 23.6 74.4 13 -5.9 21.5
12:25 1011 29.85 840 24.81 22.7 72.8 14 -5.7 21.8
12:30 1011 29.85 840 24.81 23.1 73.6 13 -6.6 20.2
12:35 1011 29.85 840 24.81 23.3 74 13 -6.7 20
12:40 1011 29.85 840 24.81 23.2 73.8 12 -7.3 18.8
12:45 1011 29.85 840 24.81 23.1 73.6 14 -6 21.2
12:50 1011 29.85 840 24.81 23.5 74.2 12 -7.2 19.1
12:55 1011 29.85 840 24.81 23.6 74.5 13 -6.6 20.1
13:00 1011 29.85 840 24.81 23.3 74 13 -6.9 19.6
13:05 1011 29.85 840 24.81 23.4 74.2 12 -7.1 19.2
13:10 1011 29.85 840 24.81 24.1 75.3 12 -7 19.4
13:15 1011 29.85 840 24.81 24.3 75.7 12 -7 19.3
13:20 1011 29.85 840 24.81 24 75.3 12 -7.1 19.2
13:25 1010 29.83 840 24.81 23.7 74.7 12 -7.2 19
13:30 1010 29.83 840 24.81 24.3 75.7 12 -7.2 19.1
13:35 1010 29.83 840 24.81 23.9 74.9 12 -7.1 19.3
13:40 1010 29.83 839 24.78 23.9 75 11 -7.6 18.3
13:45 1010 29.83 839 24.78 24.3 75.7 11 -7.4 18.6
13:50 1010 29.83 839 24.78 23.7 74.6 11 -8.4 16.9
13:55 1010 29.83 839 24.78 23.4 74.1 12 -7.1 19.3
14:00 1010 29.83 839 24.78 23.4 74.2 12 -7.3 18.9
14:05 1010 29.83 839 24.78 23.2 73.8 12 -7.7 18.1
14:10 1010 29.83 839 24.78 23.3 74 12 -7.8 18
14:15 1010 29.83 839 24.78 23.3 73.9 12 -7.9 17.7
14:20 1010 29.83 839 24.78 23.1 73.7 11 -8.4 16.8
14:25 1010 29.83 839 24.78 22.9 73.2 11 -8.6 16.5
14:30 1010 29.83 839 24.78 22.8 73 11 -8.7 16.3
14:35 1010 29.83 839 24.78 23 73.5 11 -8.7 16.4
14:40 1010 29.83 839 24.78 23.3 73.9 12 -7.7 18.2
14:45 1010 29.83 839 24.78 23.1 73.5 11 -8.3 17.1
14:50 1010 29.83 839 24.78 23.1 73.6 12 -7.6 18.3
14:55 1010 29.83 839 24.78 23.3 73.9 11 -8.2 17.3
15:00 1010 29.83 839 24.78 23.4 74.2 12 -7.9 17.8
15:05 1010 29.83 839 24.78 23.4 74.2 11 -8 17.6
15:10 1010 29.83 839 24.78 23.7 74.7 11 -8.8 16.2
15:15 1010 29.83 839 24.78 23.5 74.2 12 -7.6 18.4
15:20 1010 29.83 839 24.78 23.3 74 12 -7.4 18.6
15:25 1010 29.83 839 24.78 23.7 74.6 11 -8.2 17.2
15:30 1010 29.83 839 24.78 23.7 74.7 12 -7.2 19.1
15:35 1009 29.8 839 24.78 23.4 74.1 13 -6.7 19.9
15:40 1009 29.8 839 24.78 23.4 74 12 -7.9 17.7
15:45 1009 29.8 839 24.78 23.2 73.8 11 -8.3 17
15:50 1009 29.8 839 24.78 23.1 73.6 12 -8.1 17.5
15:55 1009 29.8 839 24.78 23.4 74.2 12 -7.4 18.7
16:00 1009 29.8 839 24.78 23.4 74.1 12 -8 17.6
16:05 1009 29.8 838 24.75 23.1 73.5 11 -9 15.8
16:10 1009 29.8 838 24.75 22.8 73 12 -8.4 16.8
16:15 1009 29.8 838 24.75 22.7 72.9 11 -8.9 15.9
16:20 1009 29.8 838 24.75 22.6 72.7 11 -8.9 16
16:25 1009 29.8 838 24.75 22.6 72.7 11 -9.4 15.1
16:30 1009 29.8 838 24.75 22.6 72.6 12 -8.3 17
16:35 1009 29.8 838 24.75 22.5 72.4 12 -7.7 18.1
16:40 1009 29.8 838 24.75 22.6 72.7 12 -8.1 17.3
16:45 1009 29.8 838 24.75 22.7 72.8 13 -7.4 18.7
16:50 1009 29.8 838 24.75 22.5 72.4 13 -6.9 19.7
16:55 1009 29.8 839 24.78 22.2 71.9 13 -7.7 18.1
17:00 1009 29.8 839 24.78 21.9 71.5 13 -7.5 18.5
17:05 1009 29.8 838 24.75 21.9 71.4 13 -7.2 19
17:10 1009 29.8 838 24.75 21.8 71.2 15 -6.2 20.8
17:15 1009 29.8 839 24.78 21.6 70.8 15 -5.8 21.5
17:20 1009 29.8 839 24.78 21.6 70.8 15 -6.1 21
17:25 1009 29.8 839 24.78 21.8 71.2 12 -8.5 16.6
17:30 1009 29.8 838 24.75 22.1 71.8 12 -8 17.6
17:35 1009 29.8 838 24.75 22.1 71.8 13 -7.7 18.2
17:40 1009 29.8 838 24.75 22 71.6 13 -7.9 17.8
17:45 1009 29.8 838 24.75 22 71.5 14 -6.6 20.2
17:50 1009 29.8 838 24.75 21.9 71.4 15 -6 21.2
17:55 1009 29.8 838 24.75 21.9 71.5 14 -6.9 19.5
18:00 1009 29.8 838 24.75 22 71.7 13 -7.3 18.9
18:05 1009 29.8 838 24.75 22 71.6 14 -6.7 19.9
18:10 1009 29.8 838 24.75 22 71.5 14 -6.9 19.6
18:15 1009 29.8 838 24.75 21.9 71.5 12 -8.1 17.4
18:20 1009 29.8 838 24.75 21.9 71.4 16 -5.2 22.6
18:25 1009 29.8 838 24.75 21.6 70.9 14 -6.9 19.7
18:30 1009 29.8 838 24.75 21.5 70.6 14 -7.3 18.8
18:35 1009 29.8 838 24.75 21.5 70.6 18 -4 24.8
18:40 1009 29.8 838 24.75 21.3 70.4 15 -6.6 20.1
18:45 1009 29.8 838 24.75 21.1 69.9 18 -4.3 24.2
18:50 1009 29.8 838 24.75 20.9 69.6 16 -6.1 21.1
18:55 1009 29.8 838 24.75 20.7 69.2 15 -6.5 20.3
19:00 1009 29.8 838 24.75 20.4 68.7 15 -6.9 19.7
19:05 1009 29.8 838 24.75 20.4 68.6 15 -7.2 19.1
19:10 1009 29.8 838 24.75 20.4 68.6 18 -4.3 24.3
19:15 1009 29.8 838 24.75 20.1 68.2 17 -5.3 22.5
19:20 1009 29.8 838 24.75 19.9 67.9 19 -4.5 23.9
19:25 1009 29.8 838 24.75 19.3 66.8 22 -2.7 27.1
19:30 1009 29.8 838 24.75 18.7 65.7 22 -3.4 26
19:35 1009 29.8 838 24.75 18.4 65 26 -1.1 30
19:40 1009 29.8 838 24.75 18.1 64.6 24 -2.7 27.2
19:45 1009 29.8 838 24.75 17.9 64.2 26 -1.8 28.8
19:50 1009 29.8 838 24.75 17.5 63.5 29 -0.7 30.8
19:55 1009 29.8 838 24.75 17.1 62.9 26 -2.4 27.6
20:00 1009 29.8 838 24.75 16.9 62.5 26 -2.4 27.7
20:05 1009 29.8 839 24.78 16.6 61.8 27 -2.4 27.7
20:10 1009 29.8 839 24.78 16.3 61.4 27 -2.6 27.3
20:15 1009 29.8 839 24.78 16.2 61.1 27 -2.7 27.2
20:20 1009 29.8 839 24.78 16.1 61 28 -2.5 27.4
20:25 1009 29.8 839 24.78 15.9 60.7 27 -3.1 26.5
20:30 1009 29.8 839 24.78 15.8 60.5 27 -3 26.6
20:35 1009 29.8 839 24.78 15.7 60.3 26 -3.4 25.9
20:40 1009 29.8 839 24.78 15.6 60 27 -3.4 25.8
20:45 1010 29.83 839 24.78 15.4 59.7 27 -3.6 25.6
20:50 1010 29.83 839 24.78 15.3 59.5 27 -3.5 25.6
20:55 1010 29.83 839 24.78 15.1 59.2 27 -3.5 25.8
21:00 1010 29.83 839 24.78 14.9 58.8 28 -3.4 25.9
21:05 1010 29.83 839 24.78 14.7 58.5 28 -3.8 25.2
21:10 1010 29.83 839 24.78 14.8 58.6 27 -4 24.8
21:15 1009 29.8 839 24.78 14.9 58.8 26 -4.3 24.3
21:20 1009 29.8 839 24.78 14.8 58.7 27 -4.1 24.6
21:25 1009 29.8 839 24.78 14.6 58.3 27 -4.2 24.5
21:30 1009 29.8 839 24.78 14.5 58.1 28 -3.8 25.1
21:35 1009 29.8 839 24.78 14.3 57.8 28 -4 24.7
21:40 1009 29.8 839 24.78 14.1 57.4 28 -4.1 24.6
21:45 1009 29.8 839 24.78 14 57.2 28 -4.1 24.7
21:50 1009 29.8 838 24.75 14 57.1 27 -4.5 23.9
21:55 1009 29.8 838 24.75 14.3 57.7 27 -4.4 24.1
22:00 1009 29.8 838 24.75 14.2 57.6 27 -4.4 24.1
22:05 1009 29.8 838 24.75 14 57.3 28 -4.2 24.5
22:10 1009 29.8 838 24.75 13.8 56.9 28 -4.3 24.3
22:15 1009 29.8 838 24.75 13.6 56.4 28 -4.3 24.3
22:20 1009 29.8 838 24.75 13.4 56.1 29 -4.1 24.7
22:25 1009 29.8 838 24.75 13.1 55.5 30 -4 24.8
22:30 1009 29.8 838 24.75 12.7 54.9 31 -3.8 25.1
22:35 1009 29.8 838 24.75 12.4 54.3 32 -3.9 25
22:40 1009 29.8 838 24.75 12.3 54.1 32 -4.1 24.7
22:45 1009 29.8 838 24.75 12.2 54 32 -4 24.8
22:50 1009 29.8 838 24.75 12.1 53.8 32 -4 24.8
22:55 1009 29.8 838 24.75 12 53.6 32 -4.2 24.5
23:00 1009 29.8 838 24.75 12.2 53.9 31 -4.4 24.1
23:05 1009 29.8 838 24.75 12.7 54.9 30 -4.6 23.8
23:10 1009 29.8 838 24.75 12.9 55.2 29 -4.7 23.5
23:15 1009 29.8 838 24.75 13.2 55.7 29 -4.6 23.7
23:20 1009 29.8 838 24.75 13.2 55.7 28 -4.8 23.3
23:25 1009 29.8 838 24.75 13.3 55.9 28 -4.8 23.4
23:30 1009 29.8 838 24.75 13.2 55.8 29 -4.6 23.7
23:35 1009 29.8 838 24.75 13 55.3 29 -4.6 23.7
23:40 1009 29.8 838 24.75 13 55.4 29 -4.6 23.8
23:45 1009 29.8 838 24.75 13 55.3 29 -4.7 23.6
23:50 1009 29.8 838 24.75 12.9 55.2 29 -4.7 23.6
23:55 1008 29.77 838 24.75 12.9 55.2 30 -4.4 24.1
24:00 1008 29.77 838 24.75 12.7 54.8 30 -4.2 24.5